Time;durP1;ratioP1;P1;durP2;ratioP2;P2;SDS_P1;SDS_P2;PMS_P1;PMS_P2;Temp;Humidity;BMP_temperature;BMP_pressure;BME280_temperature;BME280_humidity;BME280_pressure;Samples;Min_cycle;Max_cycle;Signal;HPM_P1;HPM_P2
2022/09/06 00:02:19;;;;;;;;;4.50;4.50;;;;;22.64;45.41;100993.41;4961212;28;45226;-69
2022/09/06 00:04:44;;;;;;;;;5.50;4.50;;;;;22.62;45.18;100989.97;4961317;28;45486;-69
2022/09/06 00:07:09;;;;;;;;;6.50;5.00;;;;;22.60;45.65;100996.38;4961255;28;45538;-69
2022/09/06 00:09:35;;;;;;;;;6.75;5.00;;;;;22.59;45.29;100995.50;4961093;28;45247;-69
2022/09/06 00:12:00;;;;;;;;;6.00;5.00;;;;;22.59;45.25;101000.88;4943376;28;45280;-69
2022/09/06 00:14:26;;;;;;;;;4.00;4.00;;;;;22.59;45.73;100998.19;4960663;28;46206;-69
2022/09/06 00:16:51;;;;;;;;;4.00;4.00;;;;;22.60;45.57;101001.72;4961207;28;45263;-69
2022/09/06 00:19:16;;;;;;;;;3.00;3.00;;;;;22.58;45.40;100999.16;4943712;28;45454;-69
2022/09/06 00:21:42;;;;;;;;;4.50;4.50;;;;;22.60;45.27;101001.72;4961028;28;45582;-69
2022/09/06 00:24:07;;;;;;;;;6.00;5.00;;;;;22.58;45.42;101004.50;4943436;28;46097;-69
2022/09/06 00:26:32;;;;;;;;;6.75;5.00;;;;;22.58;45.32;101004.50;4960879;28;45177;-69
2022/09/06 00:28:58;;;;;;;;;4.50;4.50;;;;;22.56;45.80;101001.03;4960782;28;45214;-69
2022/09/06 00:31:25;;;;;;;;;4.75;4.75;;;;;22.54;45.47;101003.81;4961073;28;45550;-69
2022/09/06 00:33:51;;;;;;;;;3.75;3.75;;;;;22.54;45.20;101000.25;4960939;28;47083;-69
2022/09/06 00:36:17;;;;;;;;;6.00;5.00;;;;;22.49;45.56;101005.91;4960693;28;45397;-69
2022/09/06 00:38:42;;;;;;;;;5.00;4.00;;;;;22.50;45.57;101012.13;4961025;28;45431;-69
2022/09/06 00:41:11;;;;;;;;;4.00;4.00;;;;;22.47;45.75;101002.47;4960563;28;45300;-70
2022/09/06 00:43:36;;;;;;;;;5.50;5.00;;;;;22.48;46.01;101003.34;4960416;28;46308;-69
2022/09/06 00:46:03;;;;;;;;;4.75;3.75;;;;;22.47;45.66;101006.97;4960427;28;45443;-69
2022/09/06 00:48:30;;;;;;;;;4.25;4.25;;;;;22.44;45.77;101007.13;4960932;28;45297;-69
2022/09/06 00:50:59;;;;;;;;;6.50;5.50;;;;;22.43;46.04;101016.13;4969660;28;45595;-69
2022/09/06 00:53:25;;;;;;;;;5.00;5.00;;;;;22.41;45.54;101008.19;4960586;28;46329;-69
2022/09/06 00:55:51;;;;;;;;;5.00;4.00;;;;;22.28;45.93;100991.97;4960245;28;45305;-69
2022/09/06 00:58:17;;;;;;;;;0.00;0.00;;;;;22.36;45.75;101004.88;4943407;28;45297;-69
2022/09/06 01:00:43;;;;;;;;;5.75;4.00;;;;;22.34;45.89;100999.63;4960237;28;45558;-69
2022/09/06 01:03:10;;;;;;;;;6.00;4.25;;;;;22.32;45.80;101008.72;4960453;28;46091;-69
2022/09/06 01:05:44;;;;;;;;;5.00;4.00;;;;;;;;4960318;28;45341;-69
2022/09/06 01:08:31;;;;;;;;;4.00;4.00;;;;;22.28;45.96;101008.03;4960635;28;45335;-69
2022/09/06 01:11:22;;;;;;;;;6.00;5.00;;;;;22.26;46.25;101006.38;4960665;28;45334;-69
2022/09/06 01:14:09;;;;;;;;;6.25;5.25;;;;;22.23;45.93;101005.59;4959882;28;46506;-69
2022/09/06 01:17:05;;;;;;;;;5.25;5.25;;;;;22.17;45.96;100997.94;4960111;28;45338;-70
2022/09/06 01:20:09;;;;;;;;;6.75;5.50;;;;;22.20;46.15;101012.94;4959885;28;45503;-69
2022/09/06 01:23:03;;;;;;;;;4.75;4.75;;;;;22.21;46.54;101007.53;4945278;28;45591;-69
2022/09/06 01:25:46;;;;;;;;;5.00;5.00;;;;;22.21;45.91;101006.66;4962620;28;45356;-69
2022/09/06 01:28:32;;;;;;;;;8.00;6.25;;;;;22.20;46.40;101010.28;4963435;28;45411;-69
2022/09/06 01:31:23;;;;;;;;;5.00;5.00;;;;;22.19;45.74;101011.25;4962962;28;45243;-69
2022/09/06 01:34:04;;;;;;;;;7.25;6.50;;;;;22.20;46.33;101007.59;4963417;28;45463;-69
2022/09/06 01:36:50;;;;;;;;;4.50;4.50;;;;;22.18;46.06;101009.53;4963051;28;46380;-69
2022/09/06 01:39:30;;;;;;;;;5.25;5.00;;;;;22.15;46.07;101001.66;4963353;28;45331;-69
2022/09/06 01:41:58;;;;;;;;;6.50;6.00;;;;;22.15;46.14;101018.59;4963396;28;45341;-69
2022/09/06 01:44:26;;;;;;;;;7.00;6.00;;;;;22.03;46.54;100998.75;4962722;28;45365;-68
2022/09/06 01:47:08;;;;;;;;;5.00;5.00;;;;;22.13;46.45;101008.94;4961913;28;46171;-68
2022/09/06 01:49:40;;;;;;;;;7.00;6.00;;;;;22.13;46.13;101014.28;4963067;28;45308;-69
2022/09/06 01:52:33;;;;;;;;;3.50;3.00;;;;;22.11;46.83;101021.53;4970824;28;45312;-69
2022/09/06 01:55:16;;;;;;;;;6.50;5.00;;;;;22.08;46.25;101018.06;4962498;28;46291;-69
2022/09/06 01:57:57;;;;;;;;;4.75;4.75;;;;;22.07;46.36;101013.69;4962749;28;46006;-69
2022/09/06 02:00:23;;;;;;;;;4.75;4.75;;;;;22.06;46.57;101006.63;4961881;28;45383;-69
2022/09/06 02:03:27;;;;;;;;;7.75;7.00;;;;;22.07;46.39;101003.00;4963026;28;45371;-69
2022/09/06 02:06:02;;;;;;;;;6.50;6.50;;;;;22.07;46.62;101007.47;4962248;28;45561;-69
2022/09/06 02:08:35;;;;;;;;;8.00;8.00;;;;;22.05;46.98;101002.22;4962757;28;46156;-68
2022/09/06 02:11:03;;;;;;;;;4.50;4.50;;;;;22.03;46.62;100987.19;4963056;28;45264;-68
2022/09/06 02:13:50;;;;;;;;;5.75;5.75;;;;;22.01;46.52;100998.00;4962658;28;45303;-68
2022/09/06 02:16:20;;;;;;;;;9.75;7.25;;;;;22.01;46.42;100989.97;4962705;28;45467;-68
2022/09/06 02:19:03;;;;;;;;;7.50;6.25;;;;;21.99;46.77;100983.00;4962584;28;45307;-68
2022/09/06 02:21:33;;;;;;;;;6.00;6.00;;;;;21.99;46.75;100986.50;4962590;28;45541;-68
2022/09/06 02:24:04;;;;;;;;;7.50;6.50;;;;;21.92;46.38;100972.66;4961251;28;45459;-68
2022/09/06 02:26:33;;;;;;;;;7.00;7.00;;;;;21.96;46.71;100976.00;4962581;28;45260;-68
2022/09/06 02:28:59;;;;;;;;;5.50;5.50;;;;;21.91;46.49;100962.88;4962382;28;45597;-68
2022/09/06 02:31:32;;;;;;;;;9.25;8.00;;;;;21.92;46.84;100974.44;4944634;28;45624;-68
2022/09/06 02:33:58;;;;;;;;;5.25;5.25;;;;;21.90;47.20;100969.19;4944786;28;45249;-69
2022/09/06 02:36:24;;;;;;;;;8.75;6.00;;;;;21.89;47.07;100985.34;4944928;28;45565;-69
2022/09/06 02:38:50;;;;;;;;;6.75;6.75;;;;;21.89;47.25;100988.00;4962416;28;45590;-68
2022/09/06 02:41:21;;;;;;;;;10.50;8.50;;;;;21.88;47.02;100992.47;4962389;28;45363;-68
2022/09/06 02:43:46;;;;;;;;;5.25;4.50;;;;;21.87;46.97;100987.22;4962164;28;45296;-68
2022/09/06 02:46:12;;;;;;;;;9.00;7.50;;;;;21.82;46.65;100974.09;4962130;28;45245;-68
2022/09/06 02:48:37;;;;;;;;;10.25;8.00;;;;;21.85;47.23;100983.78;4962249;28;45414;-68
2022/09/06 02:51:04;;;;;;;;;8.75;7.50;;;;;21.84;46.67;100976.72;4971624;28;45260;-68
2022/09/06 02:53:29;;;;;;;;;6.50;6.50;;;;;21.82;46.94;100982.13;4962433;28;45419;-69
2022/09/06 02:55:56;;;;;;;;;6.75;6.00;;;;;21.81;47.42;100987.56;4961877;28;45529;-69
2022/09/06 02:58:21;;;;;;;;;5.75;5.75;;;;;21.77;46.67;100978.88;4961832;28;45390;-69
2022/09/06 03:00:46;;;;;;;;;9.00;7.00;;;;;21.77;46.69;100980.69;4962132;28;45331;-69
2022/09/06 03:03:12;;;;;;;;;7.00;5.75;;;;;21.75;46.75;100978.97;4962265;28;45416;-69
2022/09/06 03:05:37;;;;;;;;;4.50;4.50;;;;;21.73;47.12;100975.50;4944664;28;45509;-68
2022/09/06 03:08:03;;;;;;;;;6.00;6.00;;;;;21.73;47.41;100980.00;4944564;28;45547;-68
2022/09/06 03:10:28;;;;;;;;;8.00;7.00;;;;;21.72;47.48;100983.63;4961494;28;45282;-68
2022/09/06 03:12:54;;;;;;;;;7.50;7.50;;;;;21.69;47.17;100983.81;4962080;28;45240;-68
2022/09/06 03:15:19;;;;;;;;;7.00;7.00;;;;;21.70;47.14;100996.22;4961667;28;45444;-68
2022/09/06 03:17:45;;;;;;;;;7.00;6.00;;;;;21.69;46.78;100992.69;4962124;28;45255;-68
2022/09/06 03:20:11;;;;;;;;;7.25;7.25;;;;;21.66;47.21;100987.53;4961819;28;45269;-69
2022/09/06 03:22:38;;;;;;;;;8.75;6.50;;;;;21.62;47.52;100983.28;4961949;28;45245;-68
2022/09/06 03:25:07;;;;;;;;;6.25;6.25;;;;;21.61;47.42;101005.63;4961625;28;45315;-68
2022/09/06 03:27:33;;;;;;;;;10.50;7.50;;;;;21.59;47.31;100999.50;4961459;28;46232;-69
2022/09/06 03:29:58;;;;;;;;;7.75;7.75;;;;;21.57;47.68;101004.06;4961431;28;45330;-68
2022/09/06 03:32:24;;;;;;;;;7.25;7.00;;;;;21.54;47.06;100998.88;4962011;28;45381;-68
2022/09/06 03:34:49;;;;;;;;;8.25;8.25;;;;;21.54;47.14;101004.22;4961532;28;45233;-68
2022/09/06 03:37:14;;;;;;;;;7.50;6.50;;;;;21.51;47.28;101010.59;4960548;28;46288;-68
2022/09/06 03:39:40;;;;;;;;;7.00;6.00;;;;;21.49;47.28;101006.28;4961697;28;45186;-68
2022/09/06 03:42:05;;;;;;;;;7.50;7.50;;;;;21.45;47.76;101010.09;4944323;28;45755;-68
2022/09/06 03:44:31;;;;;;;;;7.25;7.25;;;;;21.45;47.33;101018.13;4960491;28;45311;-68
2022/09/06 03:46:56;;;;;;;;;3.75;2.00;;;;;21.41;47.38;101030.78;4961537;28;45353;-68
2022/09/06 03:49:21;;;;;;;;;9.00;8.75;;;;;21.39;47.68;101032.66;4961384;28;45249;-68
2022/09/06 03:51:47;;;;;;;;;8.00;7.50;;;;;21.37;47.69;101037.22;4969347;28;45152;-68
2022/09/06 03:54:12;;;;;;;;;7.50;6.50;;;;;21.34;48.08;101038.25;4961328;28;45278;-68
2022/09/06 03:56:37;;;;;;;;;8.00;8.00;;;;;21.29;47.68;101031.44;4961160;28;46113;-68
2022/09/06 03:59:03;;;;;;;;;8.50;8.50;;;;;21.31;47.43;101038.44;4960884;28;45303;-68
2022/09/06 04:01:28;;;;;;;;;8.50;7.25;;;;;21.26;48.27;101054.72;4959982;28;45357;-68
2022/09/06 04:03:54;;;;;;;;;8.00;6.00;;;;;21.11;47.75;101040.38;4943873;28;45380;-68
2022/09/06 04:06:19;;;;;;;;;7.75;7.75;;;;;21.23;47.90;101062.03;4961173;28;46200;-68
2022/09/06 04:08:44;;;;;;;;;9.25;7.75;;;;;21.22;48.00;101052.28;4961014;28;45307;-68
2022/09/06 04:11:10;;;;;;;;;8.25;7.75;;;;;21.16;48.22;101044.63;4961412;28;45354;-69
2022/09/06 04:13:36;;;;;;;;;9.50;7.00;;;;;21.10;47.82;101060.00;4960772;28;45538;-68
2022/09/06 04:16:03;;;;;;;;;10.25;9.25;;;;;21.02;48.16;101046.22;4961058;28;45415;-68
2022/09/06 04:18:28;;;;;;;;;11.25;10.75;;;;;20.94;48.71;101051.97;4960993;28;45403;-68
2022/09/06 04:20:55;;;;;;;;;8.25;7.50;;;;;20.88;48.39;101044.28;4961207;28;45246;-68
2022/09/06 04:23:22;;;;;;;;;8.50;8.00;;;;;20.85;48.23;101048.91;4960929;28;45437;-68
2022/09/06 04:25:49;;;;;;;;;9.00;8.50;;;;;20.82;48.79;101051.72;4960773;28;46427;-68
2022/09/06 04:28:17;;;;;;;;;8.00;8.00;;;;;20.78;48.34;101056.41;4960521;28;45364;-69
2022/09/06 04:30:51;;;;;;;;;6.75;6.25;;;;;20.75;48.28;101052.09;4961068;28;45390;-68
2022/09/06 04:33:16;;;;;;;;;9.00;7.50;;;;;20.71;48.96;101058.50;4960730;28;45409;-68
2022/09/06 04:35:41;;;;;;;;;7.25;6.75;;;;;20.66;49.31;101068.53;4956124;28;46254;-68
2022/09/06 04:38:07;;;;;;;;;8.50;8.50;;;;;20.61;49.32;101071.41;4957507;28;45355;-66
2022/09/06 04:40:32;;;;;;;;;6.00;6.00;;;;;20.58;49.25;101081.41;4960921;28;45733;-68
2022/09/06 04:42:57;;;;;;;;;11.00;9.25;;;;;20.56;49.45;101083.28;4958684;28;45589;-68
2022/09/06 04:45:23;;;;;;;;;8.00;6.75;;;;;20.52;49.13;101087.91;4960480;28;45352;-68
2022/09/06 04:47:50;;;;;;;;;9.75;9.75;;;;;20.50;49.52;101086.28;4960528;28;45569;-68
2022/09/06 04:50:16;;;;;;;;;9.00;8.25;;;;;20.45;49.29;101087.38;4966479;28;45181;-68
2022/09/06 04:52:41;;;;;;;;;9.75;9.75;;;;;20.42;49.34;101081.31;4964343;28;45260;-68
2022/09/06 04:55:07;;;;;;;;;10.50;9.00;;;;;20.41;49.42;101085.78;4960645;28;45246;-68
2022/09/06 04:57:32;;;;;;;;;11.00;8.75;;;;;20.40;49.41;101084.06;4963819;28;45308;-68
2022/09/06 04:59:57;;;;;;;;;7.75;7.75;;;;;20.39;49.99;101084.13;4963984;28;45313;-69
2022/09/06 05:02:23;;;;;;;;;8.75;6.75;;;;;20.37;49.50;101083.34;4963552;28;45252;-68
2022/09/06 05:04:48;;;;;;;;;10.00;10.00;;;;;20.36;49.60;101094.97;4963769;28;46219;-68
2022/09/06 05:07:13;;;;;;;;;11.25;9.00;;;;;20.33;49.79;101092.47;4963919;28;45221;-69
2022/09/06 05:09:39;;;;;;;;;9.25;8.50;;;;;20.29;49.75;101097.09;4964121;28;45452;-68
2022/09/06 05:12:04;;;;;;;;;9.75;9.25;;;;;20.30;49.75;101104.13;4963774;28;45358;-68
2022/09/06 05:14:30;;;;;;;;;9.00;9.00;;;;;20.29;50.24;101094.41;4963270;28;46288;-68
2022/09/06 05:16:55;;;;;;;;;9.50;9.00;;;;;20.33;49.57;101097.81;4963556;28;45313;-63
2022/09/06 05:19:20;;;;;;;;;14.00;11.75;;;;;20.35;49.68;101099.47;4963792;28;45328;-63
2022/09/06 05:21:46;;;;;;;;;10.00;8.75;;;;;20.35;50.02;101095.91;4945971;28;45585;-62
2022/09/06 05:24:11;;;;;;;;;11.50;10.00;;;;;20.38;49.87;101104.63;4963480;28;45426;-65
2022/09/06 05:26:37;;;;;;;;;8.75;8.75;;;;;20.39;50.11;101095.69;4963440;28;45401;-63
2022/09/06 05:29:02;;;;;;;;;12.75;11.00;;;;;20.40;49.91;101084.06;4963450;28;45446;-64
2022/09/06 05:31:30;;;;;;;;;11.50;11.00;;;;;20.40;49.94;101092.09;4945996;28;45579;-62
2022/09/06 05:33:57;;;;;;;;;10.50;9.50;;;;;20.30;50.06;101077.44;4963313;28;45314;-63
2022/09/06 05:36:23;;;;;;;;;13.50;11.50;;;;;20.39;50.29;101090.34;4963029;28;45343;-67
2022/09/06 05:38:53;;;;;;;;;9.25;7.25;;;;;20.44;49.92;101088.31;4963463;28;45324;-66
2022/09/06 05:41:20;;;;;;;;;13.75;13.00;;;;;20.43;50.26;101086.56;4958714;28;45866;-67
2022/09/06 05:43:46;;;;;;;;;13.25;12.00;;;;;20.48;49.91;101081.00;4959011;28;47166;-67
2022/09/06 05:46:12;;;;;;;;;11.00;11.00;;;;;20.52;50.17;101087.06;4960596;28;45289;-69
2022/09/06 05:48:37;;;;;;;;;11.50;11.50;;;;;20.56;50.27;101093.97;4945694;28;45581;-67
2022/09/06 05:51:06;;;;;;;;;11.00;11.00;;;;;20.57;50.26;101087.69;4964469;28;45721;-62
2022/09/06 05:53:40;;;;;;;;;9.75;9.75;;;;;20.62;49.80;101096.34;4936756;28;47869;-61
2022/09/06 05:56:07;;;;;;;;;11.25;9.50;;;;;20.63;49.84;101093.56;4955886;28;45283;-65
2022/09/06 05:58:33;;;;;;;;;13.00;12.00;;;;;20.67;49.92;101093.44;4956493;28;45387;-65
2022/09/06 06:01:17;;;;;;;;;11.00;11.00;;;;;20.69;49.82;101097.75;4949727;28;45308;-63
2022/09/06 06:03:59;;;;;;;;;12.00;9.50;;;;;20.69;50.05;101089.75;4946400;28;47871;-65
2022/09/06 06:06:26;;;;;;;;;13.75;10.25;;;;;20.71;49.80;101095.03;4953010;28;45454;-64
2022/09/06 06:08:52;;;;;;;;;18.75;16.75;;;;;20.72;50.41;101089.59;4944657;28;45425;-65
2022/09/06 06:11:17;;;;;;;;;11.75;9.50;;;;;20.74;49.77;101082.38;4926285;28;45413;-62
2022/09/06 06:13:43;;;;;;;;;9.25;7.50;;;;;20.74;50.38;101071.72;4961077;28;46407;-63
2022/09/06 06:16:11;;;;;;;;;9.00;8.00;;;;;20.77;50.06;101071.53;4963089;28;45569;-63
2022/09/06 06:18:36;;;;;;;;;10.25;10.25;;;;;20.81;49.80;101068.72;4943653;28;45422;-63
2022/09/06 06:21:07;;;;;;;;;13.00;13.00;;;;;20.82;49.72;101062.41;4959322;28;45173;-64
2022/09/06 06:23:33;;;;;;;;;11.25;11.25;;;;;20.86;50.38;101050.66;4957023;28;47576;-63
2022/09/06 06:25:58;;;;;;;;;9.25;9.25;;;;;20.90;49.59;101047.72;4954058;28;45457;-63
2022/09/06 06:28:24;;;;;;;;;12.75;12.25;;;;;20.85;50.31;101043.56;4957910;28;45466;-63
2022/09/06 06:30:49;;;;;;;;;11.00;11.00;;;;;20.96;50.03;101061.72;4942588;28;45297;-62
2022/09/06 06:33:15;;;;;;;;;14.75;12.75;;;;;20.96;50.15;101061.72;4954742;28;46148;-62
2022/09/06 06:35:40;;;;;;;;;14.25;12.00;;;;;21.00;49.99;101072.13;4944647;28;45467;-61
2022/09/06 06:38:05;;;;;;;;;13.25;11.00;;;;;21.00;50.11;101076.63;4957641;28;45275;-62
2022/09/06 06:40:30;;;;;;;;;13.25;10.25;;;;;21.01;50.00;101076.53;4960064;28;45277;-61
2022/09/06 06:42:56;;;;;;;;;11.75;10.50;;;;;21.06;50.39;101076.31;4961428;28;46018;-62
2022/09/06 06:45:21;;;;;;;;;12.00;12.00;;;;;21.08;49.76;101082.41;4956995;28;46561;-61
2022/09/06 06:47:50;;;;;;;;;12.25;9.75;;;;;21.09;50.39;101071.66;4948680;28;45145;-62
2022/09/06 06:50:15;;;;;;;;;13.25;10.25;;;;;21.14;49.89;101078.56;4965967;28;45587;-62
2022/09/06 06:52:41;;;;;;;;;13.50;12.50;;;;;21.17;49.83;101073.94;4950199;28;45475;-62
2022/09/06 06:55:07;;;;;;;;;14.50;13.50;;;;;21.22;49.63;101070.97;4961876;28;45268;-63
2022/09/06 06:57:32;;;;;;;;;10.50;10.50;;;;;21.25;50.14;101066.34;4959257;28;45486;-63
2022/09/06 06:59:58;;;;;;;;;15.00;15.00;;;;;21.29;50.28;101068.88;4961631;28;45252;-63
2022/09/06 07:02:23;;;;;;;;;14.00;12.75;;;;;21.32;49.95;101066.91;4959132;28;47704;-63
2022/09/06 07:04:48;;;;;;;;;12.50;12.50;;;;;21.35;50.38;101073.88;4957335;28;45405;-62
2022/09/06 07:07:15;;;;;;;;;12.50;9.00;;;;;21.41;49.79;101065.53;4959462;28;45597;-66
2022/09/06 07:09:40;;;;;;;;;11.50;11.50;;;;;21.45;49.97;101055.53;4950559;28;45259;-63
2022/09/06 07:12:05;;;;;;;;;11.50;10.75;;;;;21.44;50.03;101038.63;4959601;28;45501;-63
2022/09/06 07:14:31;;;;;;;;;13.75;11.25;;;;;21.51;49.81;101047.16;4961349;28;45233;-63
2022/09/06 07:16:58;;;;;;;;;12.00;12.00;;;;;21.51;50.12;101040.00;4961412;28;45496;-63
2022/09/06 07:19:24;;;;;;;;;12.00;11.25;;;;;21.58;49.56;101051.25;4960937;28;45231;-63
2022/09/06 07:21:49;;;;;;;;;13.25;11.00;;;;;21.60;50.04;101054.72;4947029;28;48146;-63
2022/09/06 07:24:14;;;;;;;;;12.75;11.00;;;;;21.59;49.97;101043.13;4959084;28;45335;-62
2022/09/06 07:26:40;;;;;;;;;12.00;12.00;;;;;21.63;49.67;101051.84;4943740;28;45318;-63
2022/09/06 07:29:06;;;;;;;;;13.50;12.00;;;;;21.65;49.43;101046.44;4961426;28;45416;-63
2022/09/06 07:31:32;;;;;;;;;15.50;13.00;;;;;21.68;49.41;101052.44;4959629;28;48512;-63
2022/09/06 07:33:58;;;;;;;;;19.50;16.50;;;;;21.70;49.62;101049.72;4951678;28;45453;-62
2022/09/06 07:36:23;;;;;;;;;14.25;14.00;;;;;21.73;50.05;101046.84;4954152;28;45505;-65
2022/09/06 07:38:50;;;;;;;;;18.25;17.00;;;;;21.77;49.63;101050.22;4968344;28;45482;-63
2022/09/06 07:41:17;;;;;;;;;17.25;14.25;;;;;21.74;49.73;101053.94;4946491;28;46864;-64
2022/09/06 07:43:43;;;;;;;;;14.75;13.75;;;;;21.81;49.99;101066.03;4960201;28;45518;-64
2022/09/06 07:46:16;;;;;;;;;16.75;16.00;;;;;21.83;49.94;101069.44;4960912;28;45408;-64
2022/09/06 07:48:43;;;;;;;;;13.50;13.50;;;;;21.83;49.99;101073.94;4961239;28;45494;-64
2022/09/06 07:51:15;;;;;;;;;15.25;14.00;;;;;21.88;50.09;101062.03;4967366;28;47321;-64
2022/09/06 07:53:42;;;;;;;;;16.00;15.75;;;;;21.91;50.12;101077.03;4961048;28;45514;-64
2022/09/06 07:56:10;;;;;;;;;15.00;13.50;;;;;21.94;50.09;101082.22;4957729;28;46930;-64
2022/09/06 07:58:37;;;;;;;;;13.25;12.25;;;;;21.99;49.30;101088.19;4941549;28;45430;-64
2022/09/06 08:01:17;;;;;;;;;15.50;13.25;;;;;22.04;49.50;101093.28;4930154;28;47020;-64
2022/09/06 08:03:44;;;;;;;;;16.00;15.25;;;;;22.05;50.20;101084.31;4958793;28;45415;-64
2022/09/06 08:06:10;;;;;;;;;9.50;8.00;;;;;22.06;49.99;101086.88;4958928;28;45403;-64
2022/09/06 08:08:35;;;;;;;;;17.50;15.50;;;;;22.12;49.67;101098.19;4958630;28;45518;-64
2022/09/06 08:11:01;;;;;;;;;15.50;13.75;;;;;22.08;50.08;101084.13;4958806;28;46077;-64
2022/09/06 08:13:28;;;;;;;;;13.25;13.25;;;;;22.15;50.18;101096.22;4958504;28;45445;-64
2022/09/06 08:15:58;;;;;;;;;16.75;14.75;;;;;22.23;49.76;101093.94;4941806;28;45468;-64
2022/09/06 08:18:23;;;;;;;;;15.50;13.00;;;;;22.28;50.17;101093.69;4960488;28;45379;-64
2022/09/06 08:20:49;;;;;;;;;13.50;12.75;;;;;22.29;49.84;101095.41;4961066;28;46465;-64
2022/09/06 08:23:14;;;;;;;;;13.75;11.25;;;;;22.35;49.72;101092.38;4960963;28;45583;-64
2022/09/06 08:25:39;;;;;;;;;14.00;13.00;;;;;22.38;50.08;101080.66;4961010;28;45425;-64
2022/09/06 08:28:05;;;;;;;;;13.25;12.25;;;;;22.48;49.87;101068.44;4960567;28;45259;-65
2022/09/06 08:30:31;;;;;;;;;9.00;9.00;;;;;22.53;49.89;101068.19;4958909;28;45367;-65
2022/09/06 08:32:57;;;;;;;;;14.50;14.00;;;;;22.58;50.17;101068.78;4962988;28;45328;-65
2022/09/06 08:35:22;;;;;;;;;14.75;13.00;;;;;22.65;49.69;101077.28;4964322;28;45739;-65
2022/09/06 08:37:47;;;;;;;;;12.00;11.00;;;;;22.73;49.67;101067.00;4968074;28;45901;-65
2022/09/06 08:40:20;;;;;;;;;10.25;9.25;;;;;22.80;49.41;101075.50;4952256;28;45255;-65
2022/09/06 08:42:45;;;;;;;;;13.25;10.50;;;;;22.81;49.65;101063.84;4946557;28;45502;-65
2022/09/06 08:45:17;;;;;;;;;7.75;6.75;;;;;22.87;49.44;101069.69;4963946;28;45269;-64
2022/09/06 08:47:43;;;;;;;;;9.25;9.25;;;;;22.93;49.57;101072.94;4964206;28;45248;-65
2022/09/06 08:50:09;;;;;;;;;14.00;12.00;;;;;22.99;49.51;101073.44;4951342;28;46104;-64
2022/09/06 08:52:54;;;;;;;;;12.75;10.50;;;;;23.02;49.31;101070.56;4968110;28;45383;-65
2022/09/06 08:55:36;;;;;;;;;12.75;11.75;;;;;23.11;49.49;101065.59;4963980;28;45498;-65
2022/09/06 08:58:32;;;;;;;;;11.25;11.25;;;;;23.16;49.42;101063.53;4963644;28;45417;-64
2022/09/06 09:01:02;;;;;;;;;15.00;13.50;;;;;23.23;49.38;101053.28;4945756;28;47315;-64
2022/09/06 09:03:35;;;;;;;;;10.50;9.00;;;;;23.26;48.91;101053.94;4962570;28;45648;-64
2022/09/06 09:06:04;;;;;;;;;9.25;9.25;;;;;23.33;49.04;101044.56;4963758;28;45334;-65
2022/09/06 09:08:57;;;;;;;;;10.00;10.00;;;;;23.41;48.98;101035.16;4963679;28;45473;-65
2022/09/06 09:11:27;;;;;;;;;9.00;9.00;;;;;23.49;49.07;101035.53;4963607;28;45453;-65
2022/09/06 09:14:02;;;;;;;;;11.00;10.00;;;;;23.57;48.73;101045.78;4963210;28;45390;-65
2022/09/06 09:16:28;;;;;;;;;10.00;9.25;;;;;23.60;48.73;101054.47;4963696;28;45273;-65
2022/09/06 09:19:00;;;;;;;;;7.25;7.25;;;;;23.72;48.69;101070.75;4963451;28;45262;-65
2022/09/06 09:21:29;;;;;;;;;8.00;7.75;;;;;23.76;48.29;101081.19;4946329;28;48378;-66
2022/09/06 09:24:00;;;;;;;;;9.25;9.25;;;;;23.86;48.66;101097.53;4963748;28;45422;-65
2022/09/06 09:26:33;;;;;;;;;8.25;6.00;;;;;23.96;48.37;101087.97;4963618;28;45332;-65
2022/09/06 09:29:08;;;;;;;;;8.50;7.50;;;;;24.06;48.20;101092.72;4963184;28;45340;-65
2022/09/06 09:32:00;;;;;;;;;5.25;5.25;;;;;24.11;48.13;101098.66;4961701;28;47430;-64
2022/09/06 09:34:37;;;;;;;;;7.00;6.00;;;;;24.20;47.97;101099.88;4942823;28;45902;-65
2022/09/06 09:37:23;;;;;;;;;5.75;5.75;;;;;24.28;48.13;101095.72;4963353;28;45332;-66
2022/09/06 09:39:52;;;;;;;;;8.00;5.75;;;;;24.39;47.91;101108.44;4945936;28;45437;-66
2022/09/06 09:42:28;;;;;;;;;6.00;6.00;;;;;24.48;47.47;101099.75;4962391;28;45365;-65
2022/09/06 09:44:55;;;;;;;;;6.25;6.25;;;;;24.53;47.83;101088.69;4945558;28;45929;-65
2022/09/06 09:47:27;;;;;;;;;6.00;6.00;;;;;24.65;47.45;101092.41;4963245;28;45355;-65
2022/09/06 09:49:54;;;;;;;;;3.00;3.00;;;;;24.70;47.58;101078.66;4964566;28;45289;-65
2022/09/06 09:52:30;;;;;;;;;8.00;6.00;;;;;24.80;47.18;101086.00;4963971;28;45388;-65
2022/09/06 09:55:00;;;;;;;;;11.25;9.00;;;;;24.88;47.28;101084.59;4962945;28;45481;-65
2022/09/06 09:57:30;;;;;;;;;10.50;8.00;;;;;24.95;47.28;101081.34;4963202;28;45161;-66
2022/09/06 10:00:01;;;;;;;;;5.25;5.25;;;;;25.01;46.58;101081.94;4961975;28;45744;-64
2022/09/06 10:02:31;;;;;;;;;9.00;7.00;;;;;25.03;46.66;101096.09;4961541;28;47404;-64
2022/09/06 10:05:08;;;;;;;;;7.50;7.00;;;;;25.08;46.27;101096.63;4957734;28;45429;-65
2022/09/06 10:07:45;;;;;;;;;5.25;5.25;;;;;25.11;46.92;101101.81;4945546;28;45288;-62
2022/09/06 10:10:21;;;;;;;;;5.75;5.75;;;;;25.12;46.65;101096.31;4962810;28;45233;-62
2022/09/06 10:12:46;;;;;;;;;8.50;6.75;;;;;25.16;46.42;101102.34;4945143;28;45982;-64
2022/09/06 10:15:33;;;;;;;;;5.75;5.75;;;;;25.17;46.27;101098.69;4945219;28;45732;-62
2022/09/06 10:17:59;;;;;;;;;5.50;5.50;;;;;25.22;46.53;101098.34;4962925;28;45352;-62
2022/09/06 10:20:45;;;;;;;;;8.50;7.25;;;;;25.32;46.09;101102.13;4962762;28;45249;-62
2022/09/06 10:23:23;;;;;;;;;8.00;7.25;;;;;25.39;46.43;101107.97;4962464;28;46730;-62
2022/09/06 10:26:07;;;;;;;;;7.00;7.00;;;;;25.47;46.42;101081.34;4962649;28;45398;-63
2022/09/06 10:28:44;;;;;;;;;5.25;5.25;;;;;25.61;46.02;101085.75;4962579;28;45379;-63
2022/09/06 10:31:28;;;;;;;;;6.25;4.75;;;;;25.74;45.65;101091.09;4962482;28;45382;-64
2022/09/06 10:34:31;;;;;;;;;5.25;5.25;;;;;25.87;46.10;101075.75;4962364;28;45357;-63
2022/09/06 10:37:37;;;;;;;;;8.25;3.50;;;;;26.03;45.75;101077.34;4962408;28;45352;-63
2022/09/06 10:40:06;;;;;;;;;6.00;6.00;;;;;26.18;45.51;101061.91;4942243;28;45315;-63
2022/09/06 10:42:44;;;;;;;;;7.75;6.50;;;;;26.27;45.17;101067.41;4944617;28;45356;-64
2022/09/06 10:45:12;;;;;;;;;7.00;7.00;;;;;26.36;45.50;101060.47;4961851;28;45350;-63
2022/09/06 10:48:00;;;;;;;;;7.50;7.50;;;;;26.42;45.06;101037.63;4962377;28;45275;-64
2022/09/06 10:50:47;;;;;;;;;6.25;6.25;;;;;26.51;44.93;101033.34;4964043;28;45395;-63
2022/09/06 10:53:28;;;;;;;;;6.00;4.50;;;;;26.53;44.73;101029.56;4961021;28;45257;-63
2022/09/06 10:56:04;;;;;;;;;5.75;5.00;;;;;26.58;44.32;101029.22;4961941;28;45952;-63
2022/09/06 10:58:36;;;;;;;;;6.50;5.75;;;;;26.65;44.42;101029.59;4961813;28;45252;-63
2022/09/06 11:01:06;;;;;;;;;5.00;5.00;;;;;26.67;44.24;101022.25;4962256;28;45314;-63
2022/09/06 11:03:39;;;;;;;;;5.00;5.00;;;;;26.70;43.88;101022.84;4961811;28;45465;-64
2022/09/06 11:06:10;;;;;;;;;6.00;6.00;;;;;26.71;43.87;101019.19;4961970;28;45413;-64
2022/09/06 11:09:12;;;;;;;;;7.25;6.00;;;;;26.73;43.72;101011.00;4961741;28;45424;-64
2022/09/06 11:11:49;;;;;;;;;6.00;5.00;;;;;26.73;43.32;101003.78;4962008;28;45277;-64
2022/09/06 11:14:16;;;;;;;;;6.00;6.00;;;;;26.79;43.56;101012.38;4944146;28;46496;-64
2022/09/06 11:16:48;;;;;;;;;7.00;7.00;;;;;26.82;43.76;100999.50;4961659;28;46300;-64
2022/09/06 11:19:23;;;;;;;;;7.75;6.75;;;;;26.88;43.83;100990.06;4961579;28;45153;-64
2022/09/06 11:21:54;;;;;;;;;7.75;7.00;;;;;26.97;43.63;100989.34;4962031;28;45430;-64
2022/09/06 11:24:35;;;;;;;;;8.00;6.25;;;;;27.06;44.15;100983.22;4944137;28;45679;-65
2022/09/06 11:27:12;;;;;;;;;8.75;7.25;;;;;27.19;44.03;100988.47;4961688;28;45431;-63
2022/09/06 11:29:45;;;;;;;;;6.00;6.00;;;;;27.35;43.57;100981.84;4961280;28;45363;-63
2022/09/06 11:32:32;;;;;;;;;8.25;8.25;;;;;27.54;44.14;100973.97;4961747;28;45295;-65
2022/09/06 11:35:00;;;;;;;;;9.00;9.00;;;;;27.75;43.68;100959.69;4960837;28;45428;-65
2022/09/06 11:37:41;;;;;;;;;13.00;10.50;;;;;28.01;43.77;100962.88;4961180;28;46192;-63